Burnet's Hourly Summary for Monday, July 9, 2018
Hour Temp
(f)
RH
(%)
Solar Rad.
(MJ/m2)
Rainfall
(in)
Wind
(mph)
7/9/2018 12:00 AM 75 86 0 0 1.8
7/9/2018 1:00 AM 74 89 0 0 1.26
7/9/2018 2:00 AM 74 90 0 0 1.61
7/9/2018 3:00 AM 73 92 0 0 1.12
7/9/2018 4:00 AM 72 95 0 0 1.03
7/9/2018 5:00 AM 71 96 0 0 0.44
7/9/2018 6:00 AM 70 97 0 0 0.45
7/9/2018 7:00 AM 72 97 0.02 0 0.48
7/9/2018 8:00 AM 76 90 0.36 0 0.78
7/9/2018 9:00 AM 76 84 0.74 0 3.02
7/9/2018 10:00 AM 74 88 0.57 0 4.41
7/9/2018 11:00 AM 76 88 1.04 0 2.99
7/9/2018 12:00 PM 80 83 1.17 0 2.78
7/9/2018 1:00 PM 83 71 2.05 0 3.74
7/9/2018 2:00 PM 84 58 2.96 0 4.23
7/9/2018 3:00 PM 84 65 2.01 0 5.43
7/9/2018 4:00 PM 82 66 1.44 0 6.02
7/9/2018 5:00 PM 81 66 1.54 0 6.37
7/9/2018 6:00 PM 80 75 0.83 0 5.1
7/9/2018 7:00 PM 78 76 0.69 0 4.83
7/9/2018 8:00 PM 78 81 0.23 0 3.62
7/9/2018 9:00 PM 76 87 0.02 0 3.23
7/9/2018 10:00 PM 75 91 0 0 2.84
7/9/2018 11:00 PM 74 93 0 0 1.96
Data Summary 76 83 15.67 0.00 2.90